Terminal Aerodrome Forecast
Issued by NWS Sterling, VA

Home | Current Version | Previous Version | Text Only | Print | Product List | Glossary On
Versions: 1 2 3 4 5 6 7 8 9 10 11 12 13 14 15 16 17 18 19 20 21 22 23 24 25
000
FTUS41 KLWX 280530
TAFIAD
TAF
KIAD 280530Z 2806/2912 00000KT P6SM FEW180 BKN240
     FM280900 VRB03KT 2SM BR OVC060
     FM281100 00000KT 2SM -SHRA BR BKN050
     FM281300 20005KT P6SM -SHRA OVC035
     FM282300 28004KT P6SM -SHRA BKN040
     FM290000 32005KT P6SM BKN040
     FM290600 34006KT P6SM BKN010
     FM290900 34009KT P6SM SCT025
     FM291100 34007KT P6SM SCT025=

USA.gov is the U.S. government's official web portal to all federal, state and local government web resources and services.